Airfield :
LOGIN :

Register | Disclaimer

   EN    FR    IT 

 










Legend :    VFR   Marginal VFR   IFR   Intensive IFR   Very Intensive IFR
Visi :
Ceiling :
>= 8 km
>= 3000ft
5 to 8 km
1000 to 3000 ft
1500m to 5 km
500 to 1000 ft
800 to 1500m
200 to 500 ft
< 800m
< 200 ft
Symbols :   Thunderstorms  Fog  Heavy snow  Heavy precipitations  Wind > 20 kt
SIGMETs :     Misc.  Thunderstorms  Icing  Turbulence  Mountain Waves  Volcanic Ashes






- Airport Elevation : 1178 ft
- IATA code : EVG


ESND - Sveg

CURRENT METAR :
  • 270620Z AUTO 11006KT 070V140 9999 BKN013/// OVC028/// 02/01 Q0999

EXPIRED METARs :
  • 270550Z 16006KT 110V190 9999 FEW013 OVC020 03/01 Q0999
  • 270520Z AUTO 13006KT 090V180 9999 BKN011/// OVC016/// 02/01 Q0999
  • 270450Z AUTO 13004KT 090V160 9999 BKN013/// OVC017/// 02/01 Q0999
  • 270420Z AUTO 12005KT 090V170 9999 OVC014/// 02/01 Q0999
  • 270350Z AUTO 13005KT 9999 OVC017/// 02/01 Q1000

TAF N/A



MET'MAP, your aeronautical weather chart ! - Copyright ORBIFLY December 2007 - Disclaimer

ORBIFLY MET'MAP TEAM :

Programming & Development : Alexandra Zaïnal
Concept & original design : Baudouin d'Aumeries
Assistance for programming : Marc-Olivier Méhu
Technical & hardware support : Manuel Goepfert

Contact : metmap@orbifly.com




SOURCES & CREDITS :

   NOAA